createdAt,value
2023-01-28T00:02:09.641Z,83.64
2023-01-28T00:04:37.934Z,83.73
2023-01-28T00:07:06.619Z,83.77
2023-01-28T00:09:34.796Z,83.66
2023-01-28T00:12:03.180Z,83.79
2023-01-28T00:14:31.771Z,83.66
2023-01-28T00:17:00.361Z,83.70
2023-01-28T00:19:28.848Z,83.90
2023-01-28T00:21:57.023Z,83.72
2023-01-28T00:24:26.072Z,83.76
2023-01-28T00:26:54.614Z,83.70
2023-01-28T00:29:23.260Z,83.70
2023-01-28T00:31:51.865Z,83.77
2023-01-28T00:34:21.198Z,83.94
2023-01-28T00:36:58.085Z,84.21
2023-01-28T00:39:27.446Z,84.20
2023-01-28T00:41:55.873Z,83.94
2023-01-28T00:44:26.404Z,83.73
2023-01-28T00:46:54.798Z,83.80
2023-01-28T00:49:23.987Z,83.39
2023-01-28T00:51:52.387Z,83.64
2023-01-28T00:54:21.074Z,83.51
2023-01-28T00:56:49.245Z,83.87
2023-01-28T00:59:17.854Z,83.77
2023-01-28T01:01:46.417Z,83.46
2023-01-28T01:04:27.082Z,83.28
2023-01-28T01:06:55.680Z,83.45
2023-01-28T01:09:24.519Z,83.52
2023-01-28T01:11:52.855Z,83.33
2023-01-28T01:14:21.039Z,83.40
2023-01-28T01:16:49.244Z,83.18
2023-01-28T01:19:20.466Z,83.11
2023-01-28T01:21:50.921Z,82.99
2023-01-28T01:24:19.550Z,83.05
2023-01-28T01:26:48.175Z,82.80
2023-01-28T01:29:16.565Z,82.92
2023-01-28T01:31:45.396Z,82.92
2023-01-28T01:34:13.840Z,82.83
2023-01-28T01:36:44.206Z,82.76
2023-01-28T01:39:13.343Z,82.58
2023-01-28T01:41:42.063Z,82.56
2023-01-28T01:44:49.027Z,82.41
2023-01-28T01:47:18.984Z,82.51
2023-01-28T01:49:47.639Z,82.36
2023-01-28T01:52:22.778Z,82.92
2023-01-28T01:54:53.110Z,82.87
2023-01-28T01:57:27.948Z,82.90
2023-01-28T01:59:58.440Z,82.96
2023-01-28T02:02:27.021Z,83.01
2023-01-28T02:04:55.352Z,83.15
2023-01-28T02:07:23.628Z,82.98
2023-01-28T02:09:51.911Z,82.93
2023-01-28T02:12:25.111Z,83.00
2023-01-28T02:15:01.568Z,83.08
2023-01-28T02:17:31.111Z,83.05
2023-01-28T02:20:03.248Z,83.23
2023-01-28T02:23:13.304Z,83.52
2023-01-28T02:26:09.987Z,83.34
2023-01-28T02:28:54.981Z,83.49
2023-01-28T02:31:33.004Z,83.78
2023-01-28T02:34:29.303Z,83.65
2023-01-28T02:37:24.189Z,83.63
2023-01-28T02:39:58.287Z,83.65
2023-01-28T02:42:32.730Z,83.54
2023-01-28T02:45:01.333Z,83.58
2023-01-28T02:47:49.252Z,83.14
2023-01-28T02:50:20.983Z,82.97
2023-01-28T02:53:21.325Z,82.70
2023-01-28T02:56:01.887Z,82.77
2023-01-28T02:58:33.449Z,82.70
2023-01-28T03:01:17.818Z,82.34
2023-01-28T03:03:45.977Z,82.37
2023-01-28T03:06:21.013Z,81.32
2023-01-28T03:09:20.721Z,81.46
2023-01-28T03:12:34.422Z,80.93
2023-01-28T03:15:44.499Z,81.22
2023-01-28T03:18:42.009Z,80.97
2023-01-28T03:21:50.645Z,80.87
2023-01-28T03:24:43.564Z,80.93
2023-01-28T03:27:57.885Z,80.68
2023-01-28T03:31:11.098Z,80.99
2023-01-28T03:34:07.112Z,80.99
2023-01-28T03:36:51.878Z,81.07
2023-01-28T03:39:58.376Z,81.00
2023-01-28T03:42:26.609Z,80.94
2023-01-28T03:45:17.242Z,81.06
2023-01-28T03:47:47.418Z,80.89
2023-01-28T03:50:17.873Z,81.13
2023-01-28T03:53:14.901Z,80.91
2023-01-28T03:55:51.177Z,81.08
2023-01-28T03:58:21.086Z,80.92
2023-01-28T04:00:49.559Z,80.94
2023-01-28T04:03:20.632Z,81.08
2023-01-28T04:06:02.022Z,80.99
2023-01-28T04:08:52.983Z,80.99
2023-01-28T04:11:32.649Z,81.15
2023-01-28T04:14:04.187Z,81.27
2023-01-28T04:17:11.194Z,81.01
2023-01-28T04:19:40.548Z,80.94
2023-01-28T04:22:11.535Z,80.98
2023-01-28T04:24:41.732Z,80.78
2023-01-28T04:27:10.521Z,80.49
2023-01-28T04:29:39.411Z,80.67
2023-01-28T04:32:25.807Z,80.38
2023-01-28T04:35:08.032Z,80.30
2023-01-28T04:37:51.441Z,80.47
2023-01-28T04:40:49.983Z,80.52
2023-01-28T04:43:27.401Z,80.55
2023-01-28T04:46:12.475Z,80.70
2023-01-28T04:48:54.666Z,80.89
2023-01-28T04:51:43.524Z,80.94
2023-01-28T04:54:50.684Z,80.61
2023-01-28T04:57:19.167Z,80.65
2023-01-28T04:59:47.780Z,80.68
2023-01-28T05:02:17.453Z,80.49
2023-01-28T05:04:47.513Z,80.35
2023-01-28T05:07:30.613Z,80.26
2023-01-28T05:09:59.104Z,80.23
2023-01-28T05:12:27.964Z,80.00
2023-01-28T05:14:58.120Z,79.87
2023-01-28T05:17:28.135Z,80.14
2023-01-28T05:19:56.739Z,80.14
2023-01-28T05:22:26.151Z,80.03
2023-01-28T05:25:17.538Z,80.25
2023-01-28T05:27:51.254Z,80.22
2023-01-28T05:30:21.255Z,80.32
2023-01-28T05:32:50.100Z,80.28
2023-01-28T05:35:23.783Z,80.11
2023-01-28T05:37:52.369Z,80.17
2023-01-28T05:40:21.382Z,80.19
2023-01-28T05:42:50.056Z,80.36
2023-01-28T05:45:26.565Z,80.58
2023-01-28T05:48:06.000Z,80.40
2023-01-28T05:50:48.273Z,80.54
2023-01-28T05:53:21.946Z,81.08
2023-01-28T05:55:56.198Z,81.14
2023-01-28T05:58:27.746Z,81.16
2023-01-28T06:00:56.693Z,81.18
2023-01-28T06:03:28.813Z,81.07
2023-01-28T06:05:57.913Z,81.03
2023-01-28T06:08:26.096Z,80.75
2023-01-28T06:10:54.587Z,80.63
2023-01-28T06:13:25.321Z,80.35
2023-01-28T06:16:16.793Z,80.44
2023-01-28T06:19:04.246Z,80.33
2023-01-28T06:21:32.639Z,80.35
2023-01-28T06:24:00.992Z,80.27
2023-01-28T06:26:29.399Z,80.41
2023-01-28T06:28:57.685Z,80.60
2023-01-28T06:31:26.068Z,80.43
2023-01-28T06:33:54.246Z,80.01
2023-01-28T06:36:23.142Z,79.99
2023-01-28T06:38:51.326Z,79.99
2023-01-28T06:41:19.505Z,80.02
2023-01-28T06:43:48.094Z,80.02
2023-01-28T06:46:16.936Z,79.95
2023-01-28T06:48:45.477Z,80.07
2023-01-28T06:51:13.764Z,79.96
2023-01-28T06:53:42.255Z,80.05
2023-01-28T06:56:11.099Z,80.07
2023-01-28T06:58:39.838Z,80.10
2023-01-28T07:01:09.031Z,79.83
2023-01-28T07:03:37.419Z,80.09
2023-01-28T07:06:06.633Z,80.27
2023-01-28T07:08:35.871Z,80.09
2023-01-28T07:11:04.745Z,80.08
2023-01-28T07:13:33.310Z,80.02
2023-01-28T07:16:02.114Z,79.97
2023-01-28T07:18:30.693Z,79.85
2023-01-28T07:20:59.180Z,79.94
2023-01-28T07:23:29.083Z,79.60
2023-01-28T07:26:04.651Z,79.63
2023-01-28T07:28:32.978Z,79.45
2023-01-28T07:31:01.741Z,78.92
2023-01-28T07:33:30.109Z,79.09
2023-01-28T07:35:58.390Z,79.02
2023-01-28T07:38:26.710Z,78.96
2023-01-28T07:40:54.848Z,78.92
2023-01-28T07:43:23.952Z,78.66
2023-01-28T07:45:52.743Z,78.73
2023-01-28T07:48:21.342Z,78.62
2023-01-28T07:50:51.303Z,78.64
2023-01-28T07:53:20.546Z,78.74
2023-01-28T07:55:48.848Z,78.99
2023-01-28T07:58:17.943Z,78.99
2023-01-28T08:00:46.223Z,79.11
2023-01-28T08:03:16.770Z,78.91
2023-01-28T08:05:47.818Z,78.99
2023-01-28T08:08:17.216Z,78.82
2023-01-28T08:10:46.178Z,78.57
2023-01-28T08:13:15.745Z,78.23
2023-01-28T08:15:44.936Z,78.20
2023-01-28T08:18:15.046Z,78.04
2023-01-28T08:20:46.511Z,78.11
2023-01-28T08:23:16.419Z,78.15
2023-01-28T08:25:46.438Z,77.91
2023-01-28T08:28:16.627Z,78.30
2023-01-28T08:30:45.413Z,78.22
2023-01-28T08:33:16.004Z,78.08
2023-01-28T08:35:44.979Z,78.05
2023-01-28T08:38:18.026Z,78.25
2023-01-28T08:40:50.766Z,78.08
2023-01-28T08:43:19.162Z,78.21
2023-01-28T08:45:47.643Z,78.13
2023-01-28T08:48:17.968Z,77.99
2023-01-28T08:50:46.579Z,77.54
2023-01-28T08:53:18.074Z,77.73
2023-01-28T08:55:47.020Z,77.83
2023-01-28T08:58:17.352Z,77.70
2023-01-28T09:00:46.580Z,77.70
2023-01-28T09:03:15.723Z,77.75
2023-01-28T09:05:44.343Z,77.74
2023-01-28T09:08:14.783Z,77.83
2023-01-28T09:10:43.361Z,77.82
2023-01-28T09:13:16.366Z,77.58
2023-01-28T09:15:44.888Z,77.87
2023-01-28T09:18:13.430Z,78.03
2023-01-28T09:20:41.702Z,77.85
2023-01-28T09:23:10.662Z,77.87
2023-01-28T09:25:39.007Z,78.03
2023-01-28T09:28:07.701Z,78.17
2023-01-28T09:30:37.608Z,78.08
2023-01-28T09:33:07.509Z,78.13
2023-01-28T09:35:37.041Z,78.18
2023-01-28T09:38:05.928Z,77.96
2023-01-28T09:40:43.640Z,77.94
2023-01-28T09:43:41.995Z,78.15
2023-01-28T09:46:16.571Z,78.22
2023-01-28T09:48:51.249Z,77.76
2023-01-28T09:51:44.964Z,77.63
2023-01-28T09:54:19.626Z,77.46
2023-01-28T09:56:51.948Z,77.12
2023-01-28T09:59:23.049Z,76.93
2023-01-28T10:02:14.660Z,76.89
2023-01-28T10:04:46.319Z,76.62
2023-01-28T10:07:56.564Z,76.52
2023-01-28T10:10:42.703Z,76.89
2023-01-28T10:13:17.184Z,75.81
2023-01-28T10:15:49.216Z,75.89
2023-01-28T10:18:27.048Z,75.92
2023-01-28T10:21:02.792Z,75.91
2023-01-28T10:23:38.033Z,75.77
2023-01-28T10:26:21.359Z,75.10
2023-01-28T10:28:55.305Z,75.58
2023-01-28T10:31:30.260Z,75.62
2023-01-28T10:33:59.178Z,75.58
2023-01-28T10:36:27.692Z,75.37
2023-01-28T10:38:56.404Z,75.78
2023-01-28T10:41:26.713Z,76.15
2023-01-28T10:43:57.549Z,76.29
2023-01-28T10:46:36.882Z,75.77
2023-01-28T10:49:28.120Z,76.02
2023-01-28T10:51:56.594Z,75.57
2023-01-28T10:54:28.046Z,75.35
2023-01-28T10:57:02.112Z,75.30
2023-01-28T10:59:34.754Z,75.13
2023-01-28T11:02:06.492Z,74.61
2023-01-28T11:04:36.422Z,75.02
2023-01-28T11:07:16.460Z,75.13
2023-01-28T11:09:50.074Z,75.25
2023-01-28T11:12:28.133Z,75.06
2023-01-28T11:15:02.023Z,74.47
2023-01-28T11:17:32.340Z,73.77
2023-01-28T11:20:19.530Z,73.64
2023-01-28T11:22:49.415Z,73.05
2023-01-28T11:25:31.540Z,73.07
2023-01-28T11:28:02.975Z,73.36
2023-01-28T11:30:41.268Z,72.96
2023-01-28T11:33:22.987Z,72.43
2023-01-28T11:36:05.249Z,72.72
2023-01-28T11:38:34.697Z,73.33
2023-01-28T11:41:03.185Z,73.34
2023-01-28T11:43:32.315Z,73.39
2023-01-28T11:46:18.931Z,73.32
2023-01-28T11:49:12.747Z,72.88
2023-01-28T11:51:59.043Z,73.30
2023-01-28T11:55:05.192Z,73.74
2023-01-28T11:57:38.073Z,73.53
2023-01-28T12:00:31.707Z,73.69
2023-01-28T12:03:09.840Z,73.60
2023-01-28T12:05:55.315Z,73.01
2023-01-28T12:08:46.417Z,73.41
2023-01-28T12:11:57.065Z,73.71
2023-01-28T12:14:48.685Z,73.76
2023-01-28T12:17:54.664Z,73.97
2023-01-28T12:20:26.281Z,73.74
2023-01-28T12:23:13.394Z,74.00
2023-01-28T12:25:46.383Z,73.99
2023-01-28T12:28:30.741Z,73.38
2023-01-28T12:31:15.211Z,73.54
2023-01-28T12:33:59.843Z,73.43
2023-01-28T12:36:28.159Z,73.32
2023-01-28T12:39:24.444Z,73.51
2023-01-28T12:42:13.904Z,73.23
2023-01-28T12:44:52.419Z,73.44
2023-01-28T12:47:34.934Z,73.53
2023-01-28T12:50:18.271Z,73.53
2023-01-28T12:53:12.502Z,72.74
2023-01-28T12:55:47.154Z,72.63
2023-01-28T12:58:37.544Z,72.16
2023-01-28T13:01:11.657Z,72.02
2023-01-28T13:03:52.424Z,72.03
2023-01-28T13:06:33.293Z,71.89
2023-01-28T13:09:11.908Z,72.53
2023-01-28T13:11:41.508Z,72.64
2023-01-28T13:14:12.470Z,72.31
2023-01-28T13:16:41.317Z,71.78
2023-01-28T13:19:18.657Z,71.99
2023-01-28T13:21:50.309Z,71.87
2023-01-28T13:24:23.395Z,71.58
2023-01-28T13:26:55.282Z,71.27
2023-01-28T13:29:30.211Z,71.23
2023-01-28T13:32:01.776Z,71.28
2023-01-28T13:34:33.905Z,71.24
2023-01-28T13:37:29.076Z,71.53
2023-01-28T13:40:23.702Z,70.88
2023-01-28T13:43:34.467Z,71.06
2023-01-28T13:46:06.154Z,71.65
2023-01-28T13:48:51.999Z,72.20
2023-01-28T13:51:31.395Z,72.11
2023-01-28T13:54:06.876Z,72.09
2023-01-28T13:56:56.856Z,71.83
2023-01-28T13:59:59.533Z,71.97
2023-01-28T14:02:56.560Z,72.40
2023-01-28T14:05:51.141Z,72.39
2023-01-28T14:08:53.918Z,72.57
2023-01-28T14:11:53.714Z,72.97
2023-01-28T14:14:40.213Z,72.86
2023-01-28T14:17:14.426Z,72.98
2023-01-28T14:19:44.818Z,72.80
2023-01-28T14:22:19.299Z,72.58
2023-01-28T14:24:48.788Z,72.64
2023-01-28T14:27:20.717Z,72.30
2023-01-28T14:30:08.898Z,72.28
2023-01-28T14:32:44.951Z,72.44
2023-01-28T14:35:19.693Z,72.49
2023-01-28T14:37:48.268Z,72.41
2023-01-28T14:40:17.739Z,72.37
2023-01-28T14:42:50.876Z,72.67
2023-01-28T14:45:38.499Z,72.65
2023-01-28T14:48:26.740Z,72.45
2023-01-28T14:51:19.580Z,72.64
2023-01-28T14:54:10.889Z,72.61
2023-01-28T14:56:44.894Z,72.65
2023-01-28T14:59:34.463Z,72.68
2023-01-28T15:02:05.053Z,72.70
2023-01-28T15:04:34.891Z,72.99
2023-01-28T15:07:27.048Z,73.06
2023-01-28T15:10:08.182Z,73.51
2023-01-28T15:12:41.011Z,73.76
2023-01-28T15:15:21.771Z,73.79
2023-01-28T15:17:50.733Z,74.02
2023-01-28T15:20:22.109Z,73.80
2023-01-28T15:22:52.852Z,73.83
2023-01-28T15:25:23.396Z,73.59
2023-01-28T15:27:55.151Z,73.88
2023-01-28T15:30:27.059Z,74.02
2023-01-28T15:32:59.572Z,74.08
2023-01-28T15:35:28.420Z,74.21
2023-01-28T15:37:57.086Z,73.89
2023-01-28T15:40:26.387Z,73.30
2023-01-28T15:42:57.748Z,72.91
2023-01-28T15:45:29.710Z,72.89
2023-01-28T15:48:06.601Z,72.52
2023-01-28T15:50:35.071Z,72.73
2023-01-28T15:53:09.309Z,72.60
2023-01-28T15:55:40.331Z,72.24
2023-01-28T15:58:30.441Z,72.45
2023-01-28T16:01:05.060Z,72.51
2023-01-28T16:03:34.515Z,72.43
2023-01-28T16:06:10.125Z,72.68
2023-01-28T16:08:59.227Z,72.74
2023-01-28T16:11:32.654Z,72.71
2023-01-28T16:14:01.578Z,72.86
2023-01-28T16:16:34.616Z,72.95
2023-01-28T16:19:06.760Z,73.15
2023-01-28T16:21:43.695Z,73.26
2023-01-28T16:24:21.412Z,73.47
2023-01-28T16:27:03.504Z,73.80
2023-01-28T16:29:32.437Z,73.84
2023-01-28T16:32:01.751Z,74.16
2023-01-28T16:34:30.174Z,74.24
2023-01-28T16:37:00.393Z,74.26
2023-01-28T16:39:30.233Z,74.34
2023-01-28T16:41:58.607Z,74.33
2023-01-28T16:44:26.988Z,74.63
2023-01-28T16:46:55.658Z,74.23
2023-01-28T16:49:24.902Z,74.23
2023-01-28T16:51:53.762Z,74.30
2023-01-28T16:54:22.667Z,73.84
2023-01-28T16:56:51.161Z,73.82
2023-01-28T16:59:19.540Z,73.76
2023-01-28T17:01:49.127Z,73.69
2023-01-28T17:04:17.482Z,73.95
2023-01-28T17:06:46.127Z,73.62
2023-01-28T17:09:15.360Z,73.62
2023-01-28T17:11:44.061Z,73.71
2023-01-28T17:14:12.609Z,73.53
2023-01-28T17:16:41.039Z,73.66
2023-01-28T17:19:09.396Z,73.70
2023-01-28T17:21:37.789Z,73.34
2023-01-28T17:24:06.964Z,73.42
2023-01-28T17:26:36.617Z,73.54
2023-01-28T17:29:06.585Z,73.68
2023-01-28T17:31:36.312Z,73.33
2023-01-28T17:34:07.275Z,73.58
2023-01-28T17:36:35.830Z,73.50
2023-01-28T17:39:06.148Z,73.46
2023-01-28T17:41:34.777Z,73.61
2023-01-28T17:44:04.717Z,73.48
2023-01-28T17:46:33.379Z,73.34
2023-01-28T17:49:02.326Z,73.57
2023-01-28T17:51:30.765Z,73.58
2023-01-28T17:53:59.252Z,73.69
2023-01-28T17:56:29.167Z,73.64
2023-01-28T17:59:02.878Z,73.73
2023-01-28T18:01:31.601Z,73.78
2023-01-28T18:04:00.629Z,73.87
2023-01-28T18:06:33.420Z,73.93
2023-01-28T18:09:02.372Z,74.17
2023-01-28T18:11:32.419Z,74.35
2023-01-28T18:14:01.364Z,74.41
2023-01-28T18:16:29.750Z,74.55
2023-01-28T18:18:58.158Z,74.44
2023-01-28T18:21:51.853Z,74.36
2023-01-28T18:24:26.256Z,74.42
2023-01-28T18:26:58.406Z,74.20
2023-01-28T18:29:31.308Z,74.07
2023-01-28T18:31:59.926Z,73.71
2023-01-28T18:34:31.773Z,73.75
2023-01-28T18:37:00.627Z,73.70
2023-01-28T18:39:31.226Z,73.95
2023-01-28T18:42:00.345Z,73.94
2023-01-28T18:44:30.350Z,74.18
2023-01-28T18:46:59.180Z,74.00
2023-01-28T18:49:27.673Z,73.81
2023-01-28T18:51:56.463Z,73.63
2023-01-28T18:54:25.059Z,73.08
2023-01-28T18:56:53.334Z,73.06
2023-01-28T18:59:21.923Z,72.83
2023-01-28T19:01:50.853Z,72.83
2023-01-28T19:04:19.512Z,72.93
2023-01-28T19:06:49.855Z,72.63
2023-01-28T19:09:18.321Z,72.89
2023-01-28T19:11:48.447Z,73.10
2023-01-28T19:14:17.332Z,73.27
2023-01-28T19:16:45.692Z,73.60
2023-01-28T19:19:14.011Z,73.92
2023-01-28T19:21:42.294Z,73.74
2023-01-28T19:24:12.781Z,73.83
2023-01-28T19:26:44.234Z,73.90
2023-01-28T19:29:15.635Z,72.94
2023-01-28T19:31:44.741Z,72.38
2023-01-28T19:34:13.232Z,72.52
2023-01-28T19:36:42.551Z,73.20
2023-01-28T19:39:12.615Z,73.06
2023-01-28T19:41:41.251Z,72.94
2023-01-28T19:44:10.454Z,72.93
2023-01-28T19:46:40.976Z,72.77
2023-01-28T19:49:10.896Z,72.63
2023-01-28T19:51:39.175Z,72.47
2023-01-28T19:54:07.461Z,72.18
2023-01-28T19:56:36.357Z,72.05
2023-01-28T19:59:05.147Z,71.93
2023-01-28T20:01:33.849Z,72.04
2023-01-28T20:04:02.535Z,71.85
2023-01-28T20:06:32.241Z,71.99
2023-01-28T20:09:14.772Z,72.20
2023-01-28T20:11:43.044Z,72.25
2023-01-28T20:14:11.421Z,72.29
2023-01-28T20:16:39.801Z,72.08
2023-01-28T20:19:14.537Z,72.13
2023-01-28T20:21:43.299Z,71.78
2023-01-28T20:24:13.319Z,71.95
2023-01-28T20:26:43.261Z,72.05
2023-01-28T20:29:15.476Z,72.07
2023-01-28T20:31:44.525Z,71.63
2023-01-28T20:34:17.910Z,71.85
2023-01-28T20:36:46.533Z,71.81
2023-01-28T20:39:15.125Z,71.69
2023-01-28T20:41:43.703Z,70.80
2023-01-28T20:44:12.300Z,70.79
2023-01-28T20:46:40.690Z,70.77
2023-01-28T20:49:10.419Z,70.86
2023-01-28T20:51:39.427Z,71.00
2023-01-28T20:54:07.678Z,70.85
2023-01-28T20:56:35.855Z,70.75
2023-01-28T20:59:06.152Z,70.76
2023-01-28T21:01:36.619Z,69.99
2023-01-28T21:04:05.939Z,70.28
2023-01-28T21:06:35.284Z,70.33
2023-01-28T21:09:05.106Z,70.15
2023-01-28T21:11:34.038Z,70.28
2023-01-28T21:14:02.427Z,69.86
2023-01-28T21:16:30.705Z,69.88
2023-01-28T21:19:01.551Z,70.01
2023-01-28T21:21:30.248Z,69.95
2023-01-28T21:24:01.978Z,70.18
2023-01-28T21:26:30.392Z,70.05
2023-01-28T21:28:58.872Z,70.20
2023-01-28T21:31:27.774Z,70.34
2023-01-28T21:33:57.661Z,70.34
2023-01-28T21:36:26.933Z,70.45
2023-01-28T21:38:57.392Z,70.62
2023-01-28T21:41:26.299Z,70.37
2023-01-28T21:43:57.367Z,70.35
2023-01-28T21:46:28.633Z,70.78
2023-01-28T21:49:02.121Z,70.99
2023-01-28T21:51:36.576Z,70.94
2023-01-28T21:54:16.495Z,71.18
2023-01-28T21:56:46.919Z,70.84
2023-01-28T21:59:28.938Z,70.43
2023-01-28T22:01:57.902Z,70.38
2023-01-28T22:04:37.776Z,70.08
2023-01-28T22:07:08.598Z,70.23
2023-01-28T22:09:37.875Z,70.43
2023-01-28T22:12:08.190Z,70.59
2023-01-28T22:14:38.149Z,70.56
2023-01-28T22:17:09.271Z,70.50
2023-01-28T22:19:39.001Z,70.44
2023-01-28T22:22:07.334Z,70.43
2023-01-28T22:24:35.723Z,70.56
2023-01-28T22:27:04.471Z,70.47
2023-01-28T22:29:33.887Z,70.64
2023-01-28T22:32:04.989Z,70.53
2023-01-28T22:34:33.316Z,70.65
2023-01-28T22:37:01.494Z,70.78
2023-01-28T22:39:29.877Z,70.78
2023-01-28T22:41:58.263Z,70.58
2023-01-28T22:44:27.259Z,70.80
2023-01-28T22:46:55.705Z,70.99
2023-01-28T22:49:26.699Z,71.18
2023-01-28T22:51:54.866Z,71.07
2023-01-28T22:54:23.043Z,71.52
2023-01-28T22:56:51.941Z,71.51
2023-01-28T22:59:20.429Z,71.38
2023-01-28T23:01:48.735Z,71.70
2023-01-28T23:04:16.992Z,72.09
2023-01-28T23:06:45.377Z,71.85
2023-01-28T23:09:13.967Z,71.47
2023-01-28T23:11:42.150Z,71.52
2023-01-28T23:14:29.116Z,71.66
2023-01-28T23:17:16.275Z,71.74
2023-01-28T23:20:02.874Z,71.39
2023-01-28T23:22:51.951Z,71.19
2023-01-28T23:25:22.660Z,71.30
2023-01-28T23:27:51.145Z,71.31
2023-01-28T23:30:24.747Z,71.43
2023-01-28T23:32:56.206Z,71.16
2023-01-28T23:35:28.356Z,71.10
2023-01-28T23:37:56.759Z,71.01
2023-01-28T23:40:27.336Z,70.97
2023-01-28T23:42:56.526Z,70.73
2023-01-28T23:45:25.294Z,70.76
2023-01-28T23:47:53.779Z,70.95
2023-01-28T23:50:22.980Z,70.93
2023-01-28T23:52:51.467Z,71.26
2023-01-28T23:55:19.952Z,71.44
2023-01-28T23:57:48.643Z,71.39
